Mosinee, WI (54455)

8:49 PM CST on February 21, 2017 (GMT -0600)
MD7529 | | Change Station
Active Advisory: Flood Warning

Elev 1164 ft 44.85 °N, 89.68 °W | Updated 42 minutes ago

Scattered Clouds
Scattered Clouds
47.0 °F
Feels Like 47 °F
N
0.0
Wind Variable Wind from SSE
Gusts 0.0 mph

Today
High -- | Low -- °F
--% Chance of Precip.
Yesterday
High -- | Low -- °F
Precip. -- in
Pressure 29.78 in
Visibility 10.0 miles
Clouds Scattered Clouds 11000 ft
Windchill 47 °F
Dew Point 38 °F
Humidity 71%
Rainfall in
Snow Depth Not available.
6:49 AM 5:35 PM
Waning Crescent, 21% visible
METAR KCWA 220145Z 18008KT 10SM SCT110 08/02 A2978
Pressure 29.78 in
Visibility 10.0 miles
Clouds Scattered Clouds 11000 ft
Windchill 47 °F
Dew Point 38 °F
Humidity 71%
Rainfall in
Snow Depth Not available.
6:49 AM 5:35 PM
Waning Crescent, 21% visible
METAR KCWA 220145Z 18008KT 10SM SCT110 08/02 A2978

Get Your Daily Forecast Email!

Thanks for signing up!

Be on the lookout for a verification email in your inbox.

You'll start receiving the daily forecast at 8 AM.

×

10-Day Weather Forecast

Almanac

Astronomy

Feb. 21, 2017 Rise Set
Actual Time
Civil Twilight
Nautical Twilight
Astronomical Twilight
Moon
Length of Visible Light
Length of Day
Tomorrow will be .
, % of the Moon is Illuminated

Today's Extremes

State Highs State Lows

Community

WunderPhotos

Upload Photos

1,962,540 photos uploaded!

WunderBlog® & News

Nearby

Air Quality

  Air Quality AQ Index Pollutant
Not available.

Snow Depth

Station Depth Elevation

Earthquake Activity

City Distance Mag. Time & Date
Minimum magnitude displayed is 2.5.

Coastal Water Temperatures

Place Temperature

Stations

Nearby Weather Stations

Station Location Temp. Windchill Dew Point Humidity Wind Precip. Elev Updated Type
                   

Watches & Warnings

Flood Warning
Issued: 7:42 PM CST Feb. 21, 2017 – National Weather Service

The Flood Warning continues for
the big rib river at Rib Falls.
* At 6:15 PM Tuesday the stage was 11.1 feet.
* Flood stage is 10.0 feet.
* At 11.5 feet... up to 2 feet of flood water is covering parts of
Lions Park.


Lat... Lon 4512 9004 4512 8995 4498 8984 4495 8963
      4491 8965 4491 8993